sensor_id;sensor_type;location;lat;lon;timestamp;P1;durP1;ratioP1;P2;durP2;ratioP2
5754;SDS011;2902;42.130;24.732;2023-10-19T00:02:04;16.97;;;14.37;;
5754;SDS011;2902;42.130;24.732;2023-10-19T00:04:32;15.33;;;13.53;;
5754;SDS011;2902;42.130;24.732;2023-10-19T00:06:59;14.10;;;12.87;;
5754;SDS011;2902;42.130;24.732;2023-10-19T00:09:26;14.20;;;12.90;;
5754;SDS011;2902;42.130;24.732;2023-10-19T00:12:00;14.97;;;13.37;;
5754;SDS011;2902;42.130;24.732;2023-10-19T00:14:29;14.53;;;13.03;;
5754;SDS011;2902;42.130;24.732;2023-10-19T00:16:57;14.77;;;12.60;;
5754;SDS011;2902;42.130;24.732;2023-10-19T00:19:25;14.73;;;13.30;;
5754;SDS011;2902;42.130;24.732;2023-10-19T00:21:53;14.80;;;13.37;;
5754;SDS011;2902;42.130;24.732;2023-10-19T00:24:27;15.23;;;13.73;;
5754;SDS011;2902;42.130;24.732;2023-10-19T00:26:53;14.77;;;13.27;;
5754;SDS011;2902;42.130;24.732;2023-10-19T00:29:20;14.90;;;13.50;;
5754;SDS011;2902;42.130;24.732;2023-10-19T00:31:57;14.90;;;13.50;;
5754;SDS011;2902;42.130;24.732;2023-10-19T00:34:24;14.90;;;13.50;;
5754;SDS011;2902;42.130;24.732;2023-10-19T00:36:53;15.13;;;13.73;;
5754;SDS011;2902;42.130;24.732;2023-10-19T00:39:21;15.20;;;13.87;;
5754;SDS011;2902;42.130;24.732;2023-10-19T00:41:48;13.83;;;12.63;;
5754;SDS011;2902;42.130;24.732;2023-10-19T00:44:21;17.23;;;12.70;;
5754;SDS011;2902;42.130;24.732;2023-10-19T00:46:57;13.53;;;12.10;;
5754;SDS011;2902;42.130;24.732;2023-10-19T00:49:28;13.93;;;12.60;;
5754;SDS011;2902;42.130;24.732;2023-10-19T00:51:56;14.57;;;12.67;;
5754;SDS011;2902;42.130;24.732;2023-10-19T00:54:29;15.43;;;13.83;;
5754;SDS011;2902;42.130;24.732;2023-10-19T00:56:58;14.50;;;13.20;;
5754;SDS011;2902;42.130;24.732;2023-10-19T00:59:29;14.33;;;13.03;;
5754;SDS011;2902;42.130;24.732;2023-10-19T01:02:01;13.50;;;12.40;;
5754;SDS011;2902;42.130;24.732;2023-10-19T01:04:42;13.70;;;12.40;;
5754;SDS011;2902;42.130;24.732;2023-10-19T01:07:10;13.37;;;12.27;;
5754;SDS011;2902;42.130;24.732;2023-10-19T01:09:41;14.07;;;12.87;;
5754;SDS011;2902;42.130;24.732;2023-10-19T01:12:09;14.70;;;13.20;;
5754;SDS011;2902;42.130;24.732;2023-10-19T01:15:03;15.07;;;13.57;;
5754;SDS011;2902;42.130;24.732;2023-10-19T01:17:34;13.20;;;11.93;;
5754;SDS011;2902;42.130;24.732;2023-10-19T01:20:06;14.37;;;13.10;;
5754;SDS011;2902;42.130;24.732;2023-10-19T01:22:49;14.37;;;13.10;;
5754;SDS011;2902;42.130;24.732;2023-10-19T01:25:19;14.50;;;13.00;;
5754;SDS011;2902;42.130;24.732;2023-10-19T01:27:52;14.90;;;13.50;;
5754;SDS011;2902;42.130;24.732;2023-10-19T01:30:23;13.93;;;12.60;;
5754;SDS011;2902;42.130;24.732;2023-10-19T01:32:52;14.93;;;13.40;;
5754;SDS011;2902;42.130;24.732;2023-10-19T01:35:19;13.93;;;12.60;;
5754;SDS011;2902;42.130;24.732;2023-10-19T01:37:46;14.67;;;13.17;;
5754;SDS011;2902;42.130;24.732;2023-10-19T01:40:13;15.00;;;13.50;;
5754;SDS011;2902;42.130;24.732;2023-10-19T01:42:45;14.00;;;12.73;;
5754;SDS011;2902;42.130;24.732;2023-10-19T01:45:11;14.50;;;12.87;;
5754;SDS011;2902;42.130;24.732;2023-10-19T01:47:37;14.57;;;13.27;;
5754;SDS011;2902;42.130;24.732;2023-10-19T01:50:06;14.27;;;12.40;;
5754;SDS011;2902;42.130;24.732;2023-10-19T01:52:44;17.13;;;13.20;;
5754;SDS011;2902;42.130;24.732;2023-10-19T01:55:11;15.07;;;13.50;;
5754;SDS011;2902;42.130;24.732;2023-10-19T01:57:45;14.43;;;13.07;;
5754;SDS011;2902;42.130;24.732;2023-10-19T02:00:11;14.50;;;13.20;;
5754;SDS011;2902;42.130;24.732;2023-10-19T02:02:48;14.20;;;12.80;;
5754;SDS011;2902;42.130;24.732;2023-10-19T02:05:13;13.90;;;12.70;;
5754;SDS011;2902;42.130;24.732;2023-10-19T02:07:44;15.03;;;13.43;;
5754;SDS011;2902;42.130;24.732;2023-10-19T02:10:09;14.93;;;13.47;;
5754;SDS011;2902;42.130;24.732;2023-10-19T02:12:38;14.97;;;12.40;;
5754;SDS011;2902;42.130;24.732;2023-10-19T02:15:07;14.17;;;12.87;;
5754;SDS011;2902;42.130;24.732;2023-10-19T02:17:34;14.47;;;13.03;;
5754;SDS011;2902;42.130;24.732;2023-10-19T02:20:00;13.93;;;12.73;;
5754;SDS011;2902;42.130;24.732;2023-10-19T02:22:37;15.17;;;13.60;;
5754;SDS011;2902;42.130;24.732;2023-10-19T02:25:04;14.37;;;12.83;;
5754;SDS011;2902;42.130;24.732;2023-10-19T02:27:30;15.83;;;13.37;;
5754;SDS011;2902;42.130;24.732;2023-10-19T02:29:59;14.33;;;13.00;;
5754;SDS011;2902;42.130;24.732;2023-10-19T02:32:24;14.70;;;13.20;;
5754;SDS011;2902;42.130;24.732;2023-10-19T02:34:51;16.03;;;13.47;;
5754;SDS011;2902;42.130;24.732;2023-10-19T02:37:17;14.80;;;13.37;;
5754;SDS011;2902;42.130;24.732;2023-10-19T02:39:44;14.87;;;12.70;;
5754;SDS011;2902;42.130;24.732;2023-10-19T02:42:09;14.10;;;12.73;;
5754;SDS011;2902;42.130;24.732;2023-10-19T02:44:36;14.30;;;12.80;;
5754;SDS011;2902;42.130;24.732;2023-10-19T02:47:04;13.63;;;12.33;;
5754;SDS011;2902;42.130;24.732;2023-10-19T02:49:34;14.63;;;13.20;;
5754;SDS011;2902;42.130;24.732;2023-10-19T02:52:03;13.67;;;12.37;;
5754;SDS011;2902;42.130;24.732;2023-10-19T02:54:30;13.07;;;11.97;;
5754;SDS011;2902;42.130;24.732;2023-10-19T02:56:58;15.00;;;13.60;;
5754;SDS011;2902;42.130;24.732;2023-10-19T02:59:25;13.67;;;12.13;;
5754;SDS011;2902;42.130;24.732;2023-10-19T03:01:54;13.77;;;12.47;;
5754;SDS011;2902;42.130;24.732;2023-10-19T03:04:27;14.57;;;13.07;;
5754;SDS011;2902;42.130;24.732;2023-10-19T03:06:54;14.23;;;12.93;;
5754;SDS011;2902;42.130;24.732;2023-10-19T03:09:21;13.80;;;12.00;;
5754;SDS011;2902;42.130;24.732;2023-10-19T03:11:49;13.83;;;12.47;;
5754;SDS011;2902;42.130;24.732;2023-10-19T03:14:18;15.47;;;12.13;;
5754;SDS011;2902;42.130;24.732;2023-10-19T03:16:44;20.03;;;12.20;;
5754;SDS011;2902;42.130;24.732;2023-10-19T03:19:11;12.63;;;11.00;;
5754;SDS011;2902;42.130;24.732;2023-10-19T03:21:39;15.03;;;12.60;;
5754;SDS011;2902;42.130;24.732;2023-10-19T03:24:08;12.63;;;11.67;;
5754;SDS011;2902;42.130;24.732;2023-10-19T03:26:48;13.57;;;12.10;;
5754;SDS011;2902;42.130;24.732;2023-10-19T03:29:15;13.33;;;11.93;;
5754;SDS011;2902;42.130;24.732;2023-10-19T03:31:48;15.23;;;12.77;;
5754;SDS011;2902;42.130;24.732;2023-10-19T03:34:15;14.00;;;12.57;;
5754;SDS011;2902;42.130;24.732;2023-10-19T03:36:44;15.13;;;12.20;;
5754;SDS011;2902;42.130;24.732;2023-10-19T03:39:10;13.40;;;12.13;;
5754;SDS011;2902;42.130;24.732;2023-10-19T03:41:38;13.70;;;12.37;;
5754;SDS011;2902;42.130;24.732;2023-10-19T03:44:07;16.10;;;12.70;;
5754;SDS011;2902;42.130;24.732;2023-10-19T03:46:38;13.37;;;12.07;;
5754;SDS011;2902;42.130;24.732;2023-10-19T03:49:18;12.60;;;11.50;;
5754;SDS011;2902;42.130;24.732;2023-10-19T03:51:46;14.63;;;11.53;;
5754;SDS011;2902;42.130;24.732;2023-10-19T03:54:25;13.33;;;11.80;;
5754;SDS011;2902;42.130;24.732;2023-10-19T03:56:52;13.90;;;12.33;;
5754;SDS011;2902;42.130;24.732;2023-10-19T03:59:20;12.40;;;11.27;;
5754;SDS011;2902;42.130;24.732;2023-10-19T04:01:47;13.50;;;12.17;;
5754;SDS011;2902;42.130;24.732;2023-10-19T04:04:14;18.53;;;12.67;;
5754;SDS011;2902;42.130;24.732;2023-10-19T04:06:41;15.57;;;12.43;;
5754;SDS011;2902;42.130;24.732;2023-10-19T04:09:13;14.27;;;12.83;;
5754;SDS011;2902;42.130;24.732;2023-10-19T04:11:42;18.40;;;12.97;;
5754;SDS011;2902;42.130;24.732;2023-10-19T04:14:14;17.17;;;12.70;;
5754;SDS011;2902;42.130;24.732;2023-10-19T04:16:41;15.03;;;12.37;;
5754;SDS011;2902;42.130;24.732;2023-10-19T04:19:09;17.53;;;13.87;;
5754;SDS011;2902;42.130;24.732;2023-10-19T04:21:36;16.87;;;13.50;;
5754;SDS011;2902;42.130;24.732;2023-10-19T04:24:04;15.73;;;14.03;;
5754;SDS011;2902;42.130;24.732;2023-10-19T04:26:33;21.47;;;13.97;;
5754;SDS011;2902;42.130;24.732;2023-10-19T04:29:02;15.17;;;12.70;;
5754;SDS011;2902;42.130;24.732;2023-10-19T04:31:35;21.67;;;14.20;;
5754;SDS011;2902;42.130;24.732;2023-10-19T04:34:03;16.37;;;13.33;;
5754;SDS011;2902;42.130;24.732;2023-10-19T04:36:32;19.03;;;13.37;;
5754;SDS011;2902;42.130;24.732;2023-10-19T04:39:00;15.73;;;13.80;;
5754;SDS011;2902;42.130;24.732;2023-10-19T04:41:27;19.40;;;13.27;;
5754;SDS011;2902;42.130;24.732;2023-10-19T04:43:56;17.30;;;13.63;;
5754;SDS011;2902;42.130;24.732;2023-10-19T04:46:23;17.60;;;12.97;;
5754;SDS011;2902;42.130;24.732;2023-10-19T04:48:50;14.33;;;12.93;;
5754;SDS011;2902;42.130;24.732;2023-10-19T04:51:17;20.20;;;13.07;;
5754;SDS011;2902;42.130;24.732;2023-10-19T04:53:43;16.90;;;13.97;;
5754;SDS011;2902;42.130;24.732;2023-10-19T04:56:10;16.50;;;13.93;;
5754;SDS011;2902;42.130;24.732;2023-10-19T04:58:37;16.23;;;12.33;;
5754;SDS011;2902;42.130;24.732;2023-10-19T05:01:06;16.43;;;12.37;;
5754;SDS011;2902;42.130;24.732;2023-10-19T05:03:32;14.10;;;12.33;;
5754;SDS011;2902;42.130;24.732;2023-10-19T05:05:59;18.40;;;13.97;;
5754;SDS011;2902;42.130;24.732;2023-10-19T05:08:27;16.17;;;13.20;;
5754;SDS011;2902;42.130;24.732;2023-10-19T05:10:54;19.43;;;13.30;;
5754;SDS011;2902;42.130;24.732;2023-10-19T05:13:24;16.23;;;12.53;;
5754;SDS011;2902;42.130;24.732;2023-10-19T05:15:51;13.73;;;11.80;;
5754;SDS011;2902;42.130;24.732;2023-10-19T05:18:20;16.60;;;8.97;;
5754;SDS011;2902;42.130;24.732;2023-10-19T05:20:47;19.00;;;12.23;;
5754;SDS011;2902;42.130;24.732;2023-10-19T05:23:15;15.13;;;10.87;;
5754;SDS011;2902;42.130;24.732;2023-10-19T05:25:41;14.83;;;11.23;;
5754;SDS011;2902;42.130;24.732;2023-10-19T05:28:08;43.00;;;11.10;;
5754;SDS011;2902;42.130;24.732;2023-10-19T05:30:35;18.03;;;10.27;;
5754;SDS011;2902;42.130;24.732;2023-10-19T05:33:02;17.43;;;10.07;;
5754;SDS011;2902;42.130;24.732;2023-10-19T05:35:32;15.53;;;10.53;;
5754;SDS011;2902;42.130;24.732;2023-10-19T05:38:05;11.67;;;10.10;;
5754;SDS011;2902;42.130;24.732;2023-10-19T05:40:32;12.10;;;10.87;;
5754;SDS011;2902;42.130;24.732;2023-10-19T05:43:01;23.03;;;10.67;;
5754;SDS011;2902;42.130;24.732;2023-10-19T05:45:29;19.03;;;11.07;;
5754;SDS011;2902;42.130;24.732;2023-10-19T05:47:56;19.33;;;10.03;;
5754;SDS011;2902;42.130;24.732;2023-10-19T05:50:23;13.73;;;11.20;;
5754;SDS011;2902;42.130;24.732;2023-10-19T05:52:51;11.60;;;9.77;;
5754;SDS011;2902;42.130;24.732;2023-10-19T05:55:18;12.43;;;10.07;;
5754;SDS011;2902;42.130;24.732;2023-10-19T05:57:46;9.93;;;7.50;;
5754;SDS011;2902;42.130;24.732;2023-10-19T06:00:14;12.73;;;7.97;;
5754;SDS011;2902;42.130;24.732;2023-10-19T06:02:43;12.67;;;8.83;;
5754;SDS011;2902;42.130;24.732;2023-10-19T06:05:10;7.80;;;7.03;;
5754;SDS011;2902;42.130;24.732;2023-10-19T06:07:38;9.23;;;8.33;;
5754;SDS011;2902;42.130;24.732;2023-10-19T06:10:07;10.70;;;7.40;;
5754;SDS011;2902;42.130;24.732;2023-10-19T06:12:34;9.83;;;8.20;;
5754;SDS011;2902;42.130;24.732;2023-10-19T06:15:02;10.80;;;8.80;;
5754;SDS011;2902;42.130;24.732;2023-10-19T06:17:29;11.70;;;8.53;;
5754;SDS011;2902;42.130;24.732;2023-10-19T06:19:56;8.67;;;6.50;;
5754;SDS011;2902;42.130;24.732;2023-10-19T06:22:23;8.47;;;7.63;;
5754;SDS011;2902;42.130;24.732;2023-10-19T06:24:49;12.60;;;8.20;;
5754;SDS011;2902;42.130;24.732;2023-10-19T06:27:18;8.30;;;7.50;;
5754;SDS011;2902;42.130;24.732;2023-10-19T06:29:45;10.37;;;8.20;;
5754;SDS011;2902;42.130;24.732;2023-10-19T06:32:11;15.10;;;9.10;;
5754;SDS011;2902;42.130;24.732;2023-10-19T06:34:39;15.60;;;7.33;;
5754;SDS011;2902;42.130;24.732;2023-10-19T06:37:06;12.00;;;7.73;;
5754;SDS011;2902;42.130;24.732;2023-10-19T06:39:35;15.10;;;8.40;;
5754;SDS011;2902;42.130;24.732;2023-10-19T06:42:06;11.73;;;7.60;;
5754;SDS011;2902;42.130;24.732;2023-10-19T06:44:40;8.23;;;7.40;;
5754;SDS011;2902;42.130;24.732;2023-10-19T06:47:08;8.63;;;6.33;;
5754;SDS011;2902;42.130;24.732;2023-10-19T06:49:35;7.20;;;6.80;;
5754;SDS011;2902;42.130;24.732;2023-10-19T06:52:02;20.97;;;9.03;;
5754;SDS011;2902;42.130;24.732;2023-10-19T06:54:30;10.23;;;6.93;;
5754;SDS011;2902;42.130;24.732;2023-10-19T06:56:57;7.40;;;6.70;;
5754;SDS011;2902;42.130;24.732;2023-10-19T06:59:23;12.90;;;9.07;;
5754;SDS011;2902;42.130;24.732;2023-10-19T07:01:52;18.70;;;8.80;;
5754;SDS011;2902;42.130;24.732;2023-10-19T07:04:18;13.67;;;7.73;;
5754;SDS011;2902;42.130;24.732;2023-10-19T07:06:45;17.70;;;7.70;;
5754;SDS011;2902;42.130;24.732;2023-10-19T07:09:13;27.27;;;8.17;;
5754;SDS011;2902;42.130;24.732;2023-10-19T07:11:40;11.30;;;6.93;;
5754;SDS011;2902;42.130;24.732;2023-10-19T07:14:09;8.93;;;6.93;;
5754;SDS011;2902;42.130;24.732;2023-10-19T07:16:38;8.37;;;7.60;;
5754;SDS011;2902;42.130;24.732;2023-10-19T07:19:07;7.43;;;6.67;;
5754;SDS011;2902;42.130;24.732;2023-10-19T07:21:34;10.50;;;6.97;;
5754;SDS011;2902;42.130;24.732;2023-10-19T07:24:03;8.73;;;8.03;;
5754;SDS011;2902;42.130;24.732;2023-10-19T07:26:34;11.00;;;9.20;;
5754;SDS011;2902;42.130;24.732;2023-10-19T07:29:08;7.30;;;6.43;;
5754;SDS011;2902;42.130;24.732;2023-10-19T07:31:35;9.00;;;8.40;;
5754;SDS011;2902;42.130;24.732;2023-10-19T07:34:02;12.67;;;6.43;;
5754;SDS011;2902;42.130;24.732;2023-10-19T07:36:30;8.17;;;7.33;;
5754;SDS011;2902;42.130;24.732;2023-10-19T07:38:57;9.63;;;8.83;;
5754;SDS011;2902;42.130;24.732;2023-10-19T07:41:23;11.13;;;7.03;;
5754;SDS011;2902;42.130;24.732;2023-10-19T07:43:50;11.33;;;8.70;;
5754;SDS011;2902;42.130;24.732;2023-10-19T07:46:17;14.77;;;8.93;;
5754;SDS011;2902;42.130;24.732;2023-10-19T07:48:43;9.27;;;8.47;;
5754;SDS011;2902;42.130;24.732;2023-10-19T07:51:10;12.57;;;9.03;;
5754;SDS011;2902;42.130;24.732;2023-10-19T07:53:38;8.37;;;7.37;;
5754;SDS011;2902;42.130;24.732;2023-10-19T07:56:05;8.40;;;7.63;;
5754;SDS011;2902;42.130;24.732;2023-10-19T07:58:32;27.57;;;8.80;;
5754;SDS011;2902;42.130;24.732;2023-10-19T08:00:59;15.73;;;9.77;;
5754;SDS011;2902;42.130;24.732;2023-10-19T08:03:26;13.37;;;10.50;;
5754;SDS011;2902;42.130;24.732;2023-10-19T08:05:53;9.73;;;8.67;;
5754;SDS011;2902;42.130;24.732;2023-10-19T08:08:19;10.50;;;9.30;;
5754;SDS011;2902;42.130;24.732;2023-10-19T08:10:51;9.90;;;8.93;;
5754;SDS011;2902;42.130;24.732;2023-10-19T08:13:16;10.33;;;9.30;;
5754;SDS011;2902;42.130;24.732;2023-10-19T08:15:43;8.17;;;7.63;;
5754;SDS011;2902;42.130;24.732;2023-10-19T08:18:10;9.97;;;7.80;;
5754;SDS011;2902;42.130;24.732;2023-10-19T08:20:37;10.27;;;9.33;;
5754;SDS011;2902;42.130;24.732;2023-10-19T08:23:04;10.37;;;9.47;;
5754;SDS011;2902;42.130;24.732;2023-10-19T08:25:31;9.33;;;8.63;;
5754;SDS011;2902;42.130;24.732;2023-10-19T08:27:59;8.10;;;7.30;;
5754;SDS011;2902;42.130;24.732;2023-10-19T08:30:26;11.53;;;10.30;;
5754;SDS011;2902;42.130;24.732;2023-10-19T08:32:53;12.10;;;10.90;;
5754;SDS011;2902;42.130;24.732;2023-10-19T08:35:23;11.23;;;10.33;;
5754;SDS011;2902;42.130;24.732;2023-10-19T08:37:50;10.53;;;9.70;;
5754;SDS011;2902;42.130;24.732;2023-10-19T08:40:18;25.90;;;11.57;;
5754;SDS011;2902;42.130;24.732;2023-10-19T08:42:46;11.20;;;8.67;;
5754;SDS011;2902;42.130;24.732;2023-10-19T08:45:15;11.17;;;10.20;;
5754;SDS011;2902;42.130;24.732;2023-10-19T08:47:43;14.97;;;10.37;;
5754;SDS011;2902;42.130;24.732;2023-10-19T08:50:15;12.33;;;11.13;;
5754;SDS011;2902;42.130;24.732;2023-10-19T08:52:46;14.73;;;11.23;;
5754;SDS011;2902;42.130;24.732;2023-10-19T08:55:13;10.07;;;8.80;;
5754;SDS011;2902;42.130;24.732;2023-10-19T08:57:40;13.33;;;11.97;;
5754;SDS011;2902;42.130;24.732;2023-10-19T09:00:08;11.93;;;10.40;;
5754;SDS011;2902;42.130;24.732;2023-10-19T09:02:38;14.47;;;11.30;;
5754;SDS011;2902;42.130;24.732;2023-10-19T09:05:08;11.17;;;9.93;;
5754;SDS011;2902;42.130;24.732;2023-10-19T09:07:45;15.80;;;12.43;;
5754;SDS011;2902;42.130;24.732;2023-10-19T09:10:14;13.70;;;11.10;;
5754;SDS011;2902;42.130;24.732;2023-10-19T09:12:42;15.07;;;12.00;;
5754;SDS011;2902;42.130;24.732;2023-10-19T09:15:14;12.97;;;11.63;;
5754;SDS011;2902;42.130;24.732;2023-10-19T09:17:51;16.07;;;14.23;;
5754;SDS011;2902;42.130;24.732;2023-10-19T09:20:19;14.00;;;12.40;;
5754;SDS011;2902;42.130;24.732;2023-10-19T09:22:52;20.10;;;11.53;;
5754;SDS011;2902;42.130;24.732;2023-10-19T09:25:20;15.43;;;13.00;;
5754;SDS011;2902;42.130;24.732;2023-10-19T09:27:48;12.90;;;10.80;;
5754;SDS011;2902;42.130;24.732;2023-10-19T09:30:15;14.90;;;11.47;;
5754;SDS011;2902;42.130;24.732;2023-10-19T09:32:45;13.10;;;10.43;;
5754;SDS011;2902;42.130;24.732;2023-10-19T09:35:14;13.30;;;12.10;;
5754;SDS011;2902;42.130;24.732;2023-10-19T09:37:42;11.50;;;10.37;;
5754;SDS011;2902;42.130;24.732;2023-10-19T09:40:09;12.43;;;11.20;;
5754;SDS011;2902;42.130;24.732;2023-10-19T09:42:38;12.97;;;10.53;;
5754;SDS011;2902;42.130;24.732;2023-10-19T09:45:11;9.20;;;8.37;;
5754;SDS011;2902;42.130;24.732;2023-10-19T09:47:38;10.93;;;7.80;;
5754;SDS011;2902;42.130;24.732;2023-10-19T09:50:10;9.33;;;8.50;;
5754;SDS011;2902;42.130;24.732;2023-10-19T09:52:39;10.23;;;9.50;;
5754;SDS011;2902;42.130;24.732;2023-10-19T09:55:07;11.33;;;9.07;;
5754;SDS011;2902;42.130;24.732;2023-10-19T09:57:43;9.60;;;8.97;;
5754;SDS011;2902;42.130;24.732;2023-10-19T10:00:15;11.73;;;9.93;;
5754;SDS011;2902;42.130;24.732;2023-10-19T10:02:48;9.37;;;8.67;;
5754;SDS011;2902;42.130;24.732;2023-10-19T10:08:33;11.63;;;10.40;;
5754;SDS011;2902;42.130;24.732;2023-10-19T10:11:18;9.13;;;8.37;;
5754;SDS011;2902;42.130;24.732;2023-10-19T10:13:47;10.43;;;9.60;;
5754;SDS011;2902;42.130;24.732;2023-10-19T10:16:17;15.27;;;10.23;;
5754;SDS011;2902;42.130;24.732;2023-10-19T10:18:45;10.20;;;9.30;;
5754;SDS011;2902;42.130;24.732;2023-10-19T10:21:16;9.37;;;8.77;;
5754;SDS011;2902;42.130;24.732;2023-10-19T10:23:46;9.57;;;8.87;;
5754;SDS011;2902;42.130;24.732;2023-10-19T10:26:14;10.20;;;9.27;;
5754;SDS011;2902;42.130;24.732;2023-10-19T10:28:45;10.03;;;9.07;;
5754;SDS011;2902;42.130;24.732;2023-10-19T10:31:13;9.90;;;9.00;;
5754;SDS011;2902;42.130;24.732;2023-10-19T10:33:42;9.60;;;9.00;;
5754;SDS011;2902;42.130;24.732;2023-10-19T10:36:11;9.83;;;9.07;;
5754;SDS011;2902;42.130;24.732;2023-10-19T10:38:38;12.25;;;11.32;;
5754;SDS011;2902;42.130;24.732;2023-10-19T10:41:07;10.53;;;9.43;;
5754;SDS011;2902;42.130;24.732;2023-10-19T10:43:50;9.33;;;8.43;;
5754;SDS011;2902;42.130;24.732;2023-10-19T10:46:18;10.00;;;9.10;;
5754;SDS011;2902;42.130;24.732;2023-10-19T10:48:46;9.93;;;9.23;;
5754;SDS011;2902;42.130;24.732;2023-10-19T10:51:16;9.17;;;8.57;;
5754;SDS011;2902;42.130;24.732;2023-10-19T10:53:46;10.00;;;9.23;;
5754;SDS011;2902;42.130;24.732;2023-10-19T10:56:14;9.70;;;8.73;;
5754;SDS011;2902;42.130;24.732;2023-10-19T10:58:41;9.23;;;8.53;;
5754;SDS011;2902;42.130;24.732;2023-10-19T11:01:08;9.90;;;8.77;;
5754;SDS011;2902;42.130;24.732;2023-10-19T11:03:36;9.43;;;8.73;;
5754;SDS011;2902;42.130;24.732;2023-10-19T11:06:03;10.10;;;8.13;;
5754;SDS011;2902;42.130;24.732;2023-10-19T11:08:33;10.00;;;9.30;;
5754;SDS011;2902;42.130;24.732;2023-10-19T11:11:04;10.20;;;9.50;;
5754;SDS011;2902;42.130;24.732;2023-10-19T11:13:33;10.10;;;9.10;;
5754;SDS011;2902;42.130;24.732;2023-10-19T11:16:03;10.23;;;9.17;;
5754;SDS011;2902;42.130;24.732;2023-10-19T11:18:31;13.40;;;9.23;;
5754;SDS011;2902;42.130;24.732;2023-10-19T11:21:00;10.53;;;9.67;;
5754;SDS011;2902;42.130;24.732;2023-10-19T11:23:40;12.07;;;10.90;;
5754;SDS011;2902;42.130;24.732;2023-10-19T11:26:08;11.33;;;10.23;;
5754;SDS011;2902;42.130;24.732;2023-10-19T11:28:37;10.63;;;9.60;;
5754;SDS011;2902;42.130;24.732;2023-10-19T11:31:13;10.13;;;9.23;;
5754;SDS011;2902;42.130;24.732;2023-10-19T11:33:41;13.87;;;9.53;;
5754;SDS011;2902;42.130;24.732;2023-10-19T11:36:09;14.90;;;9.63;;
5754;SDS011;2902;42.130;24.732;2023-10-19T11:38:37;10.80;;;9.90;;
5754;SDS011;2902;42.130;24.732;2023-10-19T11:41:05;20.60;;;10.27;;
5754;SDS011;2902;42.130;24.732;2023-10-19T11:43:33;10.47;;;9.63;;
5754;SDS011;2902;42.130;24.732;2023-10-19T11:46:01;11.40;;;10.43;;
5754;SDS011;2902;42.130;24.732;2023-10-19T11:48:29;11.67;;;10.63;;
5754;SDS011;2902;42.130;24.732;2023-10-19T11:50:56;11.33;;;10.37;;
5754;SDS011;2902;42.130;24.732;2023-10-19T11:53:23;10.83;;;9.97;;
5754;SDS011;2902;42.130;24.732;2023-10-19T11:55:50;12.27;;;11.03;;
5754;SDS011;2902;42.130;24.732;2023-10-19T11:58:17;13.07;;;11.77;;
5754;SDS011;2902;42.130;24.732;2023-10-19T12:00:44;15.07;;;11.33;;
5754;SDS011;2902;42.130;24.732;2023-10-19T12:03:13;12.77;;;11.50;;
5754;SDS011;2902;42.130;24.732;2023-10-19T12:05:40;11.23;;;10.10;;
5754;SDS011;2902;42.130;24.732;2023-10-19T12:08:07;12.67;;;11.37;;
5754;SDS011;2902;42.130;24.732;2023-10-19T12:10:34;11.70;;;10.70;;
5754;SDS011;2902;42.130;24.732;2023-10-19T12:13:02;12.63;;;10.77;;
5754;SDS011;2902;42.130;24.732;2023-10-19T12:15:30;11.90;;;10.73;;
5754;SDS011;2902;42.130;24.732;2023-10-19T12:17:57;11.03;;;10.10;;
5754;SDS011;2902;42.130;24.732;2023-10-19T12:20:25;11.93;;;10.73;;
5754;SDS011;2902;42.130;24.732;2023-10-19T12:22:52;11.13;;;10.10;;
5754;SDS011;2902;42.130;24.732;2023-10-19T12:25:20;12.40;;;10.07;;
5754;SDS011;2902;42.130;24.732;2023-10-19T12:27:53;10.73;;;9.67;;
5754;SDS011;2902;42.130;24.732;2023-10-19T12:30:20;10.03;;;9.10;;
5754;SDS011;2902;42.130;24.732;2023-10-19T12:32:51;9.70;;;9.00;;
5754;SDS011;2902;42.130;24.732;2023-10-19T12:35:17;9.30;;;8.47;;
5754;SDS011;2902;42.130;24.732;2023-10-19T12:37:46;9.43;;;8.73;;
5754;SDS011;2902;42.130;24.732;2023-10-19T12:40:16;9.07;;;8.37;;
5754;SDS011;2902;42.130;24.732;2023-10-19T12:42:54;9.17;;;8.37;;
5754;SDS011;2902;42.130;24.732;2023-10-19T12:45:23;8.80;;;8.20;;
5754;SDS011;2902;42.130;24.732;2023-10-19T12:47:50;8.27;;;7.50;;
5754;SDS011;2902;42.130;24.732;2023-10-19T12:50:18;8.37;;;7.77;;
5754;SDS011;2902;42.130;24.732;2023-10-19T12:52:49;8.77;;;8.00;;
5754;SDS011;2902;42.130;24.732;2023-10-19T12:55:15;10.93;;;8.73;;
5754;SDS011;2902;42.130;24.732;2023-10-19T12:57:42;8.73;;;8.03;;
5754;SDS011;2902;42.130;24.732;2023-10-19T13:00:09;8.60;;;7.77;;
5754;SDS011;2902;42.130;24.732;2023-10-19T13:02:51;8.83;;;8.07;;
5754;SDS011;2902;42.130;24.732;2023-10-19T13:05:25;8.13;;;7.33;;
5754;SDS011;2902;42.130;24.732;2023-10-19T13:07:53;7.70;;;7.13;;
5754;SDS011;2902;42.130;24.732;2023-10-19T13:10:23;7.77;;;7.17;;
5754;SDS011;2902;42.130;24.732;2023-10-19T13:12:57;6.90;;;6.37;;
5754;SDS011;2902;42.130;24.732;2023-10-19T13:15:25;7.83;;;7.10;;
5754;SDS011;2902;42.130;24.732;2023-10-19T13:17:56;6.87;;;6.27;;
5754;SDS011;2902;42.130;24.732;2023-10-19T13:20:24;6.77;;;6.37;;
5754;SDS011;2902;42.130;24.732;2023-10-19T13:22:51;8.63;;;7.03;;
5754;SDS011;2902;42.130;24.732;2023-10-19T13:25:19;7.10;;;6.50;;
5754;SDS011;2902;42.130;24.732;2023-10-19T13:28:04;6.70;;;6.27;;
5754;SDS011;2902;42.130;24.732;2023-10-19T13:30:35;7.57;;;6.97;;
5754;SDS011;2902;42.130;24.732;2023-10-19T13:33:03;6.80;;;6.20;;
5754;SDS011;2902;42.130;24.732;2023-10-19T13:35:31;7.27;;;6.67;;
5754;SDS011;2902;42.130;24.732;2023-10-19T13:37:58;7.83;;;7.00;;
5754;SDS011;2902;42.130;24.732;2023-10-19T13:40:27;7.27;;;6.57;;
5754;SDS011;2902;42.130;24.732;2023-10-19T13:42:56;6.77;;;6.17;;
5754;SDS011;2902;42.130;24.732;2023-10-19T13:45:23;7.60;;;7.00;;
5754;SDS011;2902;42.130;24.732;2023-10-19T13:47:49;7.77;;;7.07;;
5754;SDS011;2902;42.130;24.732;2023-10-19T13:50:19;7.40;;;6.83;;
5754;SDS011;2902;42.130;24.732;2023-10-19T13:52:48;7.93;;;7.33;;
5754;SDS011;2902;42.130;24.732;2023-10-19T13:55:15;8.37;;;7.60;;
5754;SDS011;2902;42.130;24.732;2023-10-19T13:57:45;7.80;;;7.30;;
5754;SDS011;2902;42.130;24.732;2023-10-19T14:00:12;9.27;;;6.87;;
5754;SDS011;2902;42.130;24.732;2023-10-19T14:02:44;8.00;;;7.27;;
5754;SDS011;2902;42.130;24.732;2023-10-19T14:05:11;8.20;;;7.67;;
5754;SDS011;2902;42.130;24.732;2023-10-19T14:07:38;9.07;;;8.27;;
5754;SDS011;2902;42.130;24.732;2023-10-19T14:10:05;8.03;;;7.47;;
5754;SDS011;2902;42.130;24.732;2023-10-19T14:12:33;7.60;;;7.03;;
5754;SDS011;2902;42.130;24.732;2023-10-19T14:15:01;8.50;;;7.93;;
5754;SDS011;2902;42.130;24.732;2023-10-19T14:17:27;7.93;;;7.33;;
5754;SDS011;2902;42.130;24.732;2023-10-19T14:19:55;11.77;;;8.27;;
5754;SDS011;2902;42.130;24.732;2023-10-19T14:22:21;9.43;;;7.63;;
5754;SDS011;2902;42.130;24.732;2023-10-19T14:24:48;8.63;;;7.80;;
5754;SDS011;2902;42.130;24.732;2023-10-19T14:27:15;9.80;;;8.80;;
5754;SDS011;2902;42.130;24.732;2023-10-19T14:29:41;9.37;;;8.63;;
5754;SDS011;2902;42.130;24.732;2023-10-19T14:32:09;8.63;;;8.03;;
5754;SDS011;2902;42.130;24.732;2023-10-19T14:34:36;9.47;;;8.77;;
5754;SDS011;2902;42.130;24.732;2023-10-19T14:37:03;8.87;;;8.13;;
5754;SDS011;2902;42.130;24.732;2023-10-19T14:39:30;8.80;;;7.50;;
5754;SDS011;2902;42.130;24.732;2023-10-19T14:41:56;8.37;;;7.70;;
5754;SDS011;2902;42.130;24.732;2023-10-19T14:44:23;9.07;;;8.20;;
5754;SDS011;2902;42.130;24.732;2023-10-19T14:46:50;8.60;;;7.93;;
5754;SDS011;2902;42.130;24.732;2023-10-19T14:49:18;8.10;;;7.40;;
5754;SDS011;2902;42.130;24.732;2023-10-19T14:51:44;9.00;;;8.20;;
5754;SDS011;2902;42.130;24.732;2023-10-19T14:54:11;11.10;;;8.33;;
5754;SDS011;2902;42.130;24.732;2023-10-19T14:56:38;10.03;;;7.87;;
5754;SDS011;2902;42.130;24.732;2023-10-19T14:59:05;9.07;;;7.80;;